Time;durP1;ratioP1;P1;durP2;ratioP2;P2;SDS_P1;SDS_P2;PMS_P1;PMS_P2;Temp;Humidity;BMP_temperature;BMP_pressure;BME280_temperature;BME280_humidity;BME280_pressure;Samples;Min_cycle;Max_cycle;Signal;HPM_P1;HPM_P2
2023/10/04 00:02:58;;;;;;;10.05;7.45;;;;;;;;;;10054830;28;20049;-71
2023/10/04 00:07:51;;;;;;;10.00;6.55;;;;;;;;;;10062111;28;20048;-71
2023/10/04 00:12:45;;;;;;;11.77;5.78;;;;;;;;;;10061540;28;20053;-70
2023/10/04 00:17:40;;;;;;;11.90;7.78;;;;;;;;;;10062355;28;20087;-69
2023/10/04 00:22:33;;;;;;;7.05;5.82;;;;;;;;;;10059225;28;20041;-71
2023/10/04 00:27:25;;;;;;;6.80;6.10;;;;;;;;;;10060262;28;20037;-70
2023/10/04 00:32:17;;;;;;;9.07;6.07;;;;;;;;;;10064114;28;20053;-71
2023/10/04 00:37:09;;;;;;;7.55;6.30;;;;;;;;;;10071657;28;20068;-71
2023/10/04 00:42:03;;;;;;;10.32;6.75;;;;;;;;;;10066161;28;20046;-71
2023/10/04 00:46:56;;;;;;;8.23;7.00;;;;;;;;;;10067400;28;20045;-70
2023/10/04 00:51:48;;;;;;;9.43;5.57;;;;;;;;;;10067711;28;20064;-71
2023/10/04 00:56:41;;;;;;;14.50;7.05;;;;;;;;;;10052050;28;20038;-70
2023/10/04 01:01:33;;;;;;;6.60;5.30;;;;;;;;;;10068263;28;20038;-71
2023/10/04 01:06:25;;;;;;;8.38;5.63;;;;;;;;;;10068208;28;20045;-70
2023/10/04 01:11:17;;;;;;;6.03;5.30;;;;;;;;;;10067491;28;20061;-71
2023/10/04 01:16:09;;;;;;;6.45;4.72;;;;;;;;;;10068246;28;20152;-71
2023/10/04 01:21:01;;;;;;;5.35;4.88;;;;;;;;;;10068695;28;20375;-71
2023/10/04 01:25:53;;;;;;;7.05;5.57;;;;;;;;;;10066151;28;20041;-70
2023/10/04 01:30:47;;;;;;;6.90;4.35;;;;;;;;;;10067187;28;20123;-70
2023/10/04 01:35:39;;;;;;;6.68;5.22;;;;;;;;;;10067680;28;20422;-70
2023/10/04 01:40:33;;;;;;;7.57;5.43;;;;;;;;;;10067082;28;20120;-71
2023/10/04 01:45:26;;;;;;;6.40;5.75;;;;;;;;;;10066190;28;20108;-70
2023/10/04 01:50:18;;;;;;;9.05;6.97;;;;;;;;;;10067360;28;20051;-70
2023/10/04 01:55:10;;;;;;;8.18;6.90;;;;;;;;;;10066571;28;20037;-71
2023/10/04 02:00:02;;;;;;;8.65;7.85;;;;;;;;;;10066491;28;20087;-71
2023/10/04 02:05:05;;;;;;;10.95;9.82;;;;;;;;;;10066514;28;20495;-71
2023/10/04 02:09:57;;;;;;;16.95;12.63;;;;;;;;;;10056778;28;20394;-71
2023/10/04 02:14:53;;;;;;;16.33;14.63;;;;;;;;;;10065251;28;20060;-71
2023/10/04 02:19:45;;;;;;;21.42;16.85;;;;;;;;;;10067237;28;20203;-70
2023/10/04 02:24:38;;;;;;;23.40;20.85;;;;;;;;;;10063637;28;20188;-71
2023/10/04 02:29:30;;;;;;;25.33;22.55;;;;;;;;;;10065487;28;20049;-70
2023/10/04 02:34:22;;;;;;;28.17;25.17;;;;;;;;;;10065042;28;20797;-71
2023/10/04 02:39:14;;;;;;;26.20;23.42;;;;;;;;;;10064201;28;20033;-70
2023/10/04 02:44:07;;;;;;;25.55;22.95;;;;;;;;;;10062657;28;20056;-69
2023/10/04 02:49:01;;;;;;;30.17;23.38;;;;;;;;;;10063724;28;20041;-71
2023/10/04 02:53:55;;;;;;;28.95;22.08;;;;;;;;;;10064734;28;20084;-71
2023/10/04 02:58:47;;;;;;;26.33;22.15;;;;;;;;;;10062845;28;20033;-71
2023/10/04 03:03:42;;;;;;;25.23;22.67;;;;;;;;;;10064646;28;20128;-68
2023/10/04 03:08:35;;;;;;;24.25;20.95;;;;;;;;;;10062240;28;20041;-71
2023/10/04 03:13:27;;;;;;;24.25;21.15;;;;;;;;;;10064147;28;20055;-70
2023/10/04 03:18:25;;;;;;;22.73;19.77;;;;;;;;;;10062553;28;20045;-70
2023/10/04 03:23:26;;;;;;;20.67;18.50;;;;;;;;;;10061696;28;20159;-70
2023/10/04 03:28:26;;;;;;;19.80;17.70;;;;;;;;;;10062296;28;20136;-70
2023/10/04 03:33:20;;;;;;;17.30;15.48;;;;;;;;;;10062323;28;20365;-69
2023/10/04 03:38:13;;;;;;;20.80;15.50;;;;;;;;;;10050498;28;20047;-71
2023/10/04 03:43:07;;;;;;;15.93;14.30;;;;;;;;;;10063705;28;20044;-70
2023/10/04 03:48:02;;;;;;;17.50;14.88;;;;;;;;;;10065109;28;20049;-69
2023/10/04 03:52:57;;;;;;;17.60;13.90;;;;;;;;;;10053035;28;20354;-71
2023/10/04 03:57:51;;;;;;;15.85;12.77;;;;;;;;;;10065089;28;20069;-71
2023/10/04 04:02:44;;;;;;;16.42;11.48;;;;;;;;;;10065619;28;20050;-71
2023/10/04 04:07:36;;;;;;;11.82;10.30;;;;;;;;;;10054574;28;20041;-71
2023/10/04 04:12:28;;;;;;;12.43;10.25;;;;;;;;;;10065716;28;20041;-70
2023/10/04 04:17:22;;;;;;;12.10;8.95;;;;;;;;;;10065563;28;20050;-71
2023/10/04 04:22:23;;;;;;;15.10;9.13;;;;;;;;;;10065322;28;20049;-70
2023/10/04 04:27:21;;;;;;;12.30;8.75;;;;;;;;;;10063378;28;20095;-71
2023/10/04 04:32:15;;;;;;;11.55;10.15;;;;;;;;;;10063291;28;20044;-70
2023/10/04 04:37:08;;;;;;;10.82;9.20;;;;;;;;;;10064011;28;20095;-70
2023/10/04 04:42:04;;;;;;;12.52;8.60;;;;;;;;;;10064246;28;20045;-70
2023/10/04 04:46:57;;;;;;;11.90;9.20;;;;;;;;;;10063423;28;20045;-69
2023/10/04 04:51:49;;;;;;;11.02;9.55;;;;;;;;;;10063308;28;20045;-71
2023/10/04 04:56:41;;;;;;;26.48;8.77;;;;;;;;;;10063525;28;20068;-71
2023/10/04 05:01:39;;;;;;;14.80;8.90;;;;;;;;;;10054182;28;20391;-71
2023/10/04 05:06:32;;;;;;;11.50;9.00;;;;;;;;;;10055028;28;20052;-69
2023/10/04 05:11:24;;;;;;;13.07;9.07;;;;;;;;;;10064203;28;20060;-71
2023/10/04 05:16:16;;;;;;;12.32;9.27;;;;;;;;;;10054116;28;20080;-69
2023/10/04 05:21:10;;;;;;;11.00;8.30;;;;;;;;;;10066318;28;20138;-71
2023/10/04 05:26:03;;;;;;;9.20;8.27;;;;;;;;;;10061958;28;20042;-68
2023/10/04 05:30:56;;;;;;;12.05;9.43;;;;;;;;;;10068897;28;20046;-69
2023/10/04 05:35:52;;;;;;;9.68;7.60;;;;;;;;;;10062549;28;20046;-70
2023/10/04 05:40:46;;;;;;;8.73;7.85;;;;;;;;;;10068456;28;20140;-70
2023/10/04 05:45:42;;;;;;;13.80;8.38;;;;;;;;;;10064211;28;20038;-70
2023/10/04 05:50:34;;;;;;;9.75;7.45;;;;;;;;;;10065839;28;20040;-70
2023/10/04 05:55:26;;;;;;;8.13;7.38;;;;;;;;;;10064716;28;20483;-66
2023/10/04 06:05:14;;;;;;;9.27;6.82;;;;;;;;;;10063183;28;20056;-72
2023/10/04 06:10:06;;;;;;;6.00;5.38;;;;;;;;;;10063661;28;20046;-72
2023/10/04 06:14:58;;;;;;;5.68;5.07;;;;;;;;;;10064732;28;20133;-72
2023/10/04 06:19:54;;;;;;;10.95;5.68;;;;;;;;;;10065340;28;20468;-72
2023/10/04 06:24:46;;;;;;;12.82;7.30;;;;;;;;;;10059338;28;20033;-72
2023/10/04 06:29:38;;;;;;;11.63;7.18;;;;;;;;;;10061554;28;20049;-72
2023/10/04 06:34:29;;;;;;;5.60;4.45;;;;;;;;;;10063238;28;20043;-71
2023/10/04 06:39:22;;;;;;;7.25;4.60;;;;;;;;;;10062628;28;20140;-72
2023/10/04 06:44:15;;;;;;;11.23;5.10;;;;;;;;;;10061346;28;20682;-69
2023/10/04 06:49:07;;;;;;;6.85;5.00;;;;;;;;;;10058266;28;20525;-72
2023/10/04 06:54:02;;;;;;;7.15;4.90;;;;;;;;;;10059347;28;20049;-72
2023/10/04 06:58:54;;;;;;;6.70;6.03;;;;;;;;;;10055623;28;20475;-72
2023/10/04 07:03:46;;;;;;;6.72;5.65;;;;;;;;;;10063771;28;20128;-71
2023/10/04 07:08:39;;;;;;;5.43;4.80;;;;;;;;;;10057987;28;20117;-72
2023/10/04 07:13:32;;;;;;;10.07;5.00;;;;;;;;;;10062770;28;20128;-70
2023/10/04 07:18:29;;;;;;;8.98;6.35;;;;;;;;;;10060028;28;20117;-71
2023/10/04 07:23:21;;;;;;;7.20;5.75;;;;;;;;;;10061371;28;20044;-71
2023/10/04 07:28:32;;;;;;;6.93;6.10;;;;;;;;;;10061730;28;20081;-71
2023/10/04 07:33:24;;;;;;;10.90;7.47;;;;;;;;;;10061326;28;20114;-71
2023/10/04 07:38:16;;;;;;;8.70;7.32;;;;;;;;;;10059906;28;20352;-72
2023/10/04 07:43:07;;;;;;;9.55;8.27;;;;;;;;;;10060020;28;20041;-73
2023/10/04 07:48:00;;;;;;;8.35;7.55;;;;;;;;;;10059870;28;20423;-72
2023/10/04 07:52:54;;;;;;;9.43;8.20;;;;;;;;;;10060621;28;20479;-70
2023/10/04 07:57:46;;;;;;;9.85;8.75;;;;;;;;;;10059457;28;20053;-72
2023/10/04 08:02:45;;;;;;;9.98;8.95;;;;;;;;;;10058731;28;20059;-71
2023/10/04 08:07:38;;;;;;;10.52;9.35;;;;;;;;;;10060863;28;20072;-72
2023/10/04 08:12:30;;;;;;;10.50;9.50;;;;;;;;;;10059863;28;20156;-72
2023/10/04 08:17:23;;;;;;;13.43;10.15;;;;;;;;;;10060019;28;20046;-71
2023/10/04 08:22:15;;;;;;;10.35;9.25;;;;;;;;;;10051069;28;20037;-72
2023/10/04 08:27:09;;;;;;;17.77;11.27;;;;;;;;;;10060749;28;20446;-73
2023/10/04 08:32:01;;;;;;;11.23;9.80;;;;;;;;;;10050706;28;20125;-72
2023/10/04 08:36:53;;;;;;;15.05;10.27;;;;;;;;;;10060006;28;20041;-72
2023/10/04 08:41:45;;;;;;;17.98;10.27;;;;;;;;;;10059374;28;20076;-73
2023/10/04 08:46:39;;;;;;;14.18;9.05;;;;;;;;;;10059123;28;20050;-72
2023/10/04 08:51:41;;;;;;;12.73;11.43;;;;;;;;;;10055567;28;20048;-71
2023/10/04 08:56:49;;;;;;;14.40;9.80;;;;;;;;;;10062850;28;20099;-73
2023/10/04 09:01:41;;;;;;;19.15;11.68;;;;;;;;;;10067201;28;20198;-72
2023/10/04 09:06:34;;;;;;;19.95;12.73;;;;;;;;;;10065256;28;20422;-72
2023/10/04 09:11:26;;;;;;;17.52;14.05;;;;;;;;;;10065574;28;20053;-70
2023/10/04 09:16:22;;;;;;;19.55;13.73;;;;;;;;;;10065718;28;20163;-72
2023/10/04 09:21:15;;;;;;;24.92;17.92;;;;;;;;;;10065832;28;20053;-72
2023/10/04 09:26:15;;;;;;;25.40;19.10;;;;;;;;;;10064255;28;20129;-72
2023/10/04 09:31:13;;;;;;;23.25;20.33;;;;;;;;;;10065947;28;20124;-72
2023/10/04 09:36:06;;;;;;;23.35;20.77;;;;;;;;;;10057042;28;20734;-72
2023/10/04 09:40:59;;;;;;;24.60;20.77;;;;;;;;;;10063684;28;20041;-71
2023/10/04 09:45:56;;;;;;;22.40;20.10;;;;;;;;;;10056824;28;20045;-72
2023/10/04 09:50:48;;;;;;;27.13;21.77;;;;;;;;;;10064913;28;20103;-72
2023/10/04 09:55:41;;;;;;;24.65;22.00;;;;;;;;;;10064965;28;20058;-72
2023/10/04 10:00:33;;;;;;;28.67;22.52;;;;;;;;;;10061829;28;20041;-72
2023/10/04 10:05:28;;;;;;;23.27;20.63;;;;;;;;;;10053492;28;20084;-72
2023/10/04 10:10:21;;;;;;;27.05;24.33;;;;;;;;;;10065058;28;20056;-72
2023/10/04 10:15:13;;;;;;;26.20;23.58;;;;;;;;;;10055704;28;20390;-71
2023/10/04 10:20:09;;;;;;;23.40;20.98;;;;;;;;;;10064728;28;20076;-72
2023/10/04 10:25:04;;;;;;;32.13;22.65;;;;;;;;;;10065207;28;20042;-72
2023/10/04 10:30:03;;;;;;;28.75;22.48;;;;;;;;;;10062901;28;20414;-71
2023/10/04 10:35:00;;;;;;;25.25;22.67;;;;;;;;;;10065240;28;20109;-72
2023/10/04 10:39:55;;;;;;;26.80;19.15;;;;;;;;;;10061318;28;20432;-73
2023/10/04 10:44:50;;;;;;;50.75;22.83;;;;;;;;;;10061554;28;20049;-73
2023/10/04 10:49:50;;;;;;;22.70;18.70;;;;;;;;;;10062732;28;20066;-73
2023/10/04 10:54:42;;;;;;;27.08;23.00;;;;;;;;;;10063061;28;20061;-72
2023/10/04 10:59:34;;;;;;;30.13;23.85;;;;;;;;;;10061240;28;20037;-73
2023/10/04 11:04:26;;;;;;;29.05;24.33;;;;;;;;;;10062861;28;20057;-72
2023/10/04 11:09:20;;;;;;;31.67;24.25;;;;;;;;;;10060050;28;20056;-72
2023/10/04 11:14:33;;;;;;;31.08;26.55;;;;;;;;;;10059927;28;20455;-71
2023/10/04 11:19:25;;;;;;;33.53;29.95;;;;;;;;;;10062015;28;20057;-72
2023/10/04 11:24:17;;;;;;;31.80;28.33;;;;;;;;;;10062128;28;20424;-72
2023/10/04 11:29:09;;;;;;;33.67;30.08;;;;;;;;;;10063436;28;20056;-73
2023/10/04 11:34:04;;;;;;;37.38;33.47;;;;;;;;;;10061232;28;20583;-72
2023/10/04 11:38:56;;;;;;;38.13;34.03;;;;;;;;;;10061546;28;20044;-72
2023/10/04 11:43:53;;;;;;;36.58;32.47;;;;;;;;;;10060297;28;20467;-72
2023/10/04 11:48:47;;;;;;;40.92;36.05;;;;;;;;;;10059978;28;20099;-73
2023/10/04 11:53:44;;;;;;;40.95;33.17;;;;;;;;;;10059222;28;20049;-73
2023/10/04 11:58:47;;;;;;;35.38;31.70;;;;;;;;;;10061487;28;20048;-72
2023/10/04 12:03:39;;;;;;;38.03;34.22;;;;;;;;;;10060413;28;20049;-72
2023/10/04 12:08:31;;;;;;;37.75;33.15;;;;;;;;;;10057677;28;20099;-71
2023/10/04 12:13:23;;;;;;;39.50;34.92;;;;;;;;;;10057172;28;20048;-70
2023/10/04 12:18:15;;;;;;;39.22;34.92;;;;;;;;;;10060965;28;20498;-71
2023/10/04 12:23:10;;;;;;;48.88;36.45;;;;;;;;;;10065173;28;20047;-70
2023/10/04 12:28:04;;;;;;;47.85;32.97;;;;;;;;;;10059976;28;20430;-71
2023/10/04 12:32:57;;;;;;;39.78;31.92;;;;;;;;;;10059642;28;20143;-72
2023/10/04 12:37:49;;;;;;;41.58;34.80;;;;;;;;;;10060060;28;20045;-73
2023/10/04 12:42:40;;;;;;;36.67;32.58;;;;;;;;;;10059396;28;20091;-73
2023/10/04 12:47:33;;;;;;;40.42;32.95;;;;;;;;;;10058667;28;20137;-72
2023/10/04 12:52:25;;;;;;;44.85;32.35;;;;;;;;;;10058303;28;20046;-73
2023/10/04 12:57:17;;;;;;;39.50;34.83;;;;;;;;;;10061834;28;20135;-72
2023/10/04 13:02:09;;;;;;;38.92;30.17;;;;;;;;;;10057753;28;20049;-70
2023/10/04 13:07:01;;;;;;;35.47;30.63;;;;;;;;;;10065345;28;20041;-70
2023/10/04 13:11:53;;;;;;;35.00;29.38;;;;;;;;;;10071957;28;20041;-70
2023/10/04 13:16:46;;;;;;;36.00;31.92;;;;;;;;;;10065230;28;20202;-71
2023/10/04 13:21:38;;;;;;;32.75;29.17;;;;;;;;;;10064744;28;20045;-69
2023/10/04 13:26:30;;;;;;;36.40;29.90;;;;;;;;;;10068941;28;20041;-69
2023/10/04 13:31:22;;;;;;;35.60;29.05;;;;;;;;;;10064172;28;20045;-68
2023/10/04 13:36:14;;;;;;;33.35;29.80;;;;;;;;;;10065491;28;20046;-70
2023/10/04 13:41:07;;;;;;;35.92;28.75;;;;;;;;;;10053620;28;20041;-70
2023/10/04 13:46:03;;;;;;;34.63;30.25;;;;;;;;;;10065293;28;20463;-69
2023/10/04 13:50:59;;;;;;;37.90;29.00;;;;;;;;;;10063295;28;20053;-69
2023/10/04 13:55:51;;;;;;;41.90;32.03;;;;;;;;;;10066478;28;20041;-70
2023/10/04 14:00:46;;;;;;;36.40;29.55;;;;;;;;;;10064167;28;20037;-68
2023/10/04 14:05:39;;;;;;;33.28;29.58;;;;;;;;;;10066467;28;20163;-69
2023/10/04 14:10:31;;;;;;;32.55;29.02;;;;;;;;;;10065305;28;20037;-70
2023/10/04 14:15:27;;;;;;;35.38;29.10;;;;;;;;;;10064313;28;20371;-70
2023/10/04 14:20:20;;;;;;;37.03;28.30;;;;;;;;;;10065288;28;20044;-69
2023/10/04 14:25:12;;;;;;;31.58;28.27;;;;;;;;;;10067280;28;20038;-68
2023/10/04 14:30:08;;;;;;;29.02;25.73;;;;;;;;;;10065060;28;20045;-69
2023/10/04 14:35:00;;;;;;;26.45;23.80;;;;;;;;;;10065748;28;20056;-68
2023/10/04 14:39:57;;;;;;;23.50;21.00;;;;;;;;;;10065734;28;20038;-69
2023/10/04 14:44:49;;;;;;;26.85;23.95;;;;;;;;;;10066057;28;20677;-68
2023/10/04 14:49:44;;;;;;;22.67;20.25;;;;;;;;;;10065535;28;20044;-69
2023/10/04 14:54:35;;;;;;;25.08;19.75;;;;;;;;;;10065048;28;20064;-70
2023/10/04 14:59:30;;;;;;;23.30;20.35;;;;;;;;;;10062193;28;20064;-68
2023/10/04 15:04:22;;;;;;;19.38;14.15;;;;;;;;;;10062639;28;20227;-65
2023/10/04 15:09:15;;;;;;;15.35;13.85;;;;;;;;;;10064784;28;20037;-69
2023/10/04 15:14:09;;;;;;;16.63;14.80;;;;;;;;;;10064691;28;20472;-68
2023/10/04 15:19:01;;;;;;;16.48;14.88;;;;;;;;;;10064259;28;20048;-69
2023/10/04 15:23:53;;;;;;;15.25;13.65;;;;;;;;;;10063213;28;20049;-69
2023/10/04 15:28:46;;;;;;;20.23;16.98;;;;;;;;;;10054519;28;20489;-68
2023/10/04 15:33:38;;;;;;;14.02;12.63;;;;;;;;;;10063476;28;20080;-69
2023/10/04 15:38:31;;;;;;;16.00;14.30;;;;;;;;;;10053932;28;20124;-69
2023/10/04 15:43:23;;;;;;;23.65;16.20;;;;;;;;;;10063025;28;20046;-67
2023/10/04 15:48:16;;;;;;;17.05;13.85;;;;;;;;;;10061217;28;20076;-69
2023/10/04 15:53:09;;;;;;;15.25;13.73;;;;;;;;;;10061563;28;20056;-68
2023/10/04 15:58:01;;;;;;;18.13;14.13;;;;;;;;;;10060900;28;20133;-69
2023/10/04 16:02:54;;;;;;;16.77;15.10;;;;;;;;;;10058661;28;20073;-68
2023/10/04 16:07:47;;;;;;;14.85;13.32;;;;;;;;;;10054322;28;20068;-68
2023/10/04 16:12:39;;;;;;;16.25;13.48;;;;;;;;;;10062435;28;20064;-68
2023/10/04 16:17:31;;;;;;;15.63;13.85;;;;;;;;;;10060545;28;20049;-69
2023/10/04 16:22:23;;;;;;;21.85;14.23;;;;;;;;;;10058621;28;20065;-69
2023/10/04 16:27:15;;;;;;;17.50;11.77;;;;;;;;;;10053383;28;20080;-68
2023/10/04 16:32:07;;;;;;;14.68;12.05;;;;;;;;;;10061885;28;20049;-69
2023/10/04 16:36:59;;;;;;;14.77;11.55;;;;;;;;;;10062303;28;20038;-69
2023/10/04 16:41:51;;;;;;;12.88;11.15;;;;;;;;;;10061191;28;20077;-69
2023/10/04 16:46:43;;;;;;;16.92;12.45;;;;;;;;;;10061250;28;20045;-69
2023/10/04 16:51:37;;;;;;;15.98;13.25;;;;;;;;;;10062087;28;20399;-68
2023/10/04 16:56:29;;;;;;;18.40;13.20;;;;;;;;;;10062479;28;20057;-68
2023/10/04 17:01:23;;;;;;;17.67;14.90;;;;;;;;;;10061161;28;20407;-68
2023/10/04 17:06:16;;;;;;;22.00;14.85;;;;;;;;;;10062127;28;20076;-68
2023/10/04 17:11:09;;;;;;;15.90;13.73;;;;;;;;;;10063603;28;20065;-68
2023/10/04 17:16:02;;;;;;;20.40;15.00;;;;;;;;;;10069914;28;20057;-69
2023/10/04 17:20:54;;;;;;;15.10;13.35;;;;;;;;;;10077860;28;20353;-69
2023/10/04 17:25:46;;;;;;;16.80;15.00;;;;;;;;;;10068778;28;20049;-68
2023/10/04 17:30:40;;;;;;;16.85;14.10;;;;;;;;;;10069170;28;20034;-68
2023/10/04 17:35:32;;;;;;;18.98;14.95;;;;;;;;;;10065963;28;20045;-69
2023/10/04 17:40:25;;;;;;;18.52;14.85;;;;;;;;;;10066991;28;20046;-69
2023/10/04 17:45:17;;;;;;;19.30;14.23;;;;;;;;;;10066350;28;20045;-69
2023/10/04 17:50:12;;;;;;;14.30;12.70;;;;;;;;;;10073104;28;20048;-69
2023/10/04 17:55:04;;;;;;;17.98;13.15;;;;;;;;;;10070522;28;20045;-69
2023/10/04 17:59:56;;;;;;;14.52;11.00;;;;;;;;;;10072472;28;20107;-70
2023/10/04 18:04:49;;;;;;;16.63;12.20;;;;;;;;;;10068871;28;20422;-70
2023/10/04 18:09:42;;;;;;;12.20;10.85;;;;;;;;;;10070682;28;20041;-69
2023/10/04 18:14:34;;;;;;;13.35;11.98;;;;;;;;;;10067056;28;20124;-69
2023/10/04 18:19:25;;;;;;;13.70;11.40;;;;;;;;;;10070400;28;20491;-69
2023/10/04 18:24:18;;;;;;;11.18;9.80;;;;;;;;;;10082810;28;20155;-70
2023/10/04 18:29:09;;;;;;;13.02;10.43;;;;;;;;;;10061874;28;20399;-69
2023/10/04 18:34:01;;;;;;;15.60;10.45;;;;;;;;;;10080072;28;20049;-70
2023/10/04 18:38:54;;;;;;;16.98;10.30;;;;;;;;;;10060325;28;20048;-70
2023/10/04 18:43:46;;;;;;;16.55;12.05;;;;;;;;;;10089099;28;20042;-68
2023/10/04 18:48:38;;;;;;;13.43;11.98;;;;;;;;;;10060998;28;20056;-68
2023/10/04 18:53:30;;;;;;;12.90;11.60;;;;;;;;;;10056141;28;20067;-70
2023/10/04 18:58:21;;;;;;;12.35;11.10;;;;;;;;;;10050744;28;20049;-70
2023/10/04 19:03:15;;;;;;;12.95;11.57;;;;;;;;;;10062778;28;20052;-67
2023/10/04 19:08:07;;;;;;;14.27;12.52;;;;;;;;;;10068112;28;20490;-68
2023/10/04 19:13:00;;;;;;;19.40;13.15;;;;;;;;;;10076322;28;20049;-69
2023/10/04 19:17:52;;;;;;;15.93;12.82;;;;;;;;;;10077005;28;20080;-69
2023/10/04 19:22:44;;;;;;;18.02;13.50;;;;;;;;;;10066275;28;20468;-69
2023/10/04 19:27:37;;;;;;;14.70;12.65;;;;;;;;;;10063303;28;20045;-67
2023/10/04 19:32:29;;;;;;;13.70;11.85;;;;;;;;;;10063514;28;20052;-67
2023/10/04 19:37:24;;;;;;;16.48;14.77;;;;;;;;;;10076774;28;20041;-68
2023/10/04 19:42:16;;;;;;;16.05;12.77;;;;;;;;;;10079186;28;20091;-68
2023/10/04 19:47:10;;;;;;;14.82;13.32;;;;;;;;;;10089944;28;20055;-69
2023/10/04 19:52:03;;;;;;;16.35;14.20;;;;;;;;;;10069476;28;20075;-68
2023/10/04 19:56:55;;;;;;;18.60;16.65;;;;;;;;;;10083254;28;20107;-68
2023/10/04 20:01:48;;;;;;;17.20;13.63;;;;;;;;;;10080786;28;20037;-68
2023/10/04 20:06:40;;;;;;;13.95;12.48;;;;;;;;;;10075406;28;20045;-68
2023/10/04 20:11:34;;;;;;;15.80;12.98;;;;;;;;;;10058926;28;20076;-69
2023/10/04 20:16:26;;;;;;;16.13;14.63;;;;;;;;;;10059355;28;20379;-68
2023/10/04 20:21:19;;;;;;;17.40;13.75;;;;;;;;;;10061269;28;20057;-68
2023/10/04 20:26:11;;;;;;;15.25;12.05;;;;;;;;;;10062133;28;20132;-69
2023/10/04 20:31:04;;;;;;;17.23;12.45;;;;;;;;;;10056242;28;20049;-69
2023/10/04 20:35:57;;;;;;;16.38;12.68;;;;;;;;;;10063800;28;20060;-67
2023/10/04 20:40:50;;;;;;;18.95;12.10;;;;;;;;;;10064756;28;20048;-68
2023/10/04 20:45:42;;;;;;;15.05;11.88;;;;;;;;;;10065700;28;20038;-68
2023/10/04 20:50:34;;;;;;;14.23;12.32;;;;;;;;;;10067028;28;20048;-68
2023/10/04 20:55:26;;;;;;;15.13;12.35;;;;;;;;;;10063695;28;20053;-69
2023/10/04 21:00:18;;;;;;;15.32;12.70;;;;;;;;;;10056251;28;20057;-67
2023/10/04 21:05:13;;;;;;;15.40;12.35;;;;;;;;;;10063234;28;20050;-69
2023/10/04 21:10:06;;;;;;;16.10;13.25;;;;;;;;;;10069159;28;20041;-70
2023/10/04 21:14:57;;;;;;;15.90;14.30;;;;;;;;;;10068254;28;20089;-69
2023/10/04 21:19:49;;;;;;;16.25;14.55;;;;;;;;;;10062312;28;20041;-69
2023/10/04 21:24:46;;;;;;;17.73;14.23;;;;;;;;;;10068571;28;20045;-68
2023/10/04 21:29:39;;;;;;;18.80;13.90;;;;;;;;;;10068155;28;20041;-69
2023/10/04 21:34:32;;;;;;;14.25;12.77;;;;;;;;;;10067202;28;20055;-69
2023/10/04 21:39:24;;;;;;;18.80;12.98;;;;;;;;;;10068499;28;20042;-69
2023/10/04 21:44:17;;;;;;;14.68;12.20;;;;;;;;;;10068374;28;20467;-70
2023/10/04 21:49:14;;;;;;;18.27;12.40;;;;;;;;;;10068723;28;20046;-70
2023/10/04 21:54:06;;;;;;;15.80;11.50;;;;;;;;;;10071627;28;20050;-70
2023/10/04 21:58:58;;;;;;;15.20;11.35;;;;;;;;;;10070881;28;20104;-69
2023/10/04 22:03:51;;;;;;;16.15;10.98;;;;;;;;;;10069201;28;20054;-70
2023/10/04 22:08:44;;;;;;;13.70;10.52;;;;;;;;;;10071243;28;20136;-69
2023/10/04 22:13:35;;;;;;;13.80;10.07;;;;;;;;;;10070645;28;20124;-69
2023/10/04 22:18:27;;;;;;;13.38;10.40;;;;;;;;;;10070405;28;20045;-69
2023/10/04 22:23:19;;;;;;;14.13;11.18;;;;;;;;;;10070099;28;20045;-69
2023/10/04 22:28:12;;;;;;;18.75;11.82;;;;;;;;;;10057262;28;20459;-68
2023/10/04 22:33:08;;;;;;;15.07;12.85;;;;;;;;;;10066314;28;20069;-69
2023/10/04 22:38:00;;;;;;;15.20;13.27;;;;;;;;;;10069603;28;20050;-70
2023/10/04 22:42:54;;;;;;;17.63;13.35;;;;;;;;;;10069915;28;20522;-69
2023/10/04 22:47:48;;;;;;;15.48;13.60;;;;;;;;;;10069392;28;20551;-69
2023/10/04 22:52:42;;;;;;;19.85;15.75;;;;;;;;;;10069600;28;20048;-68
2023/10/04 22:57:35;;;;;;;19.38;14.80;;;;;;;;;;10065030;28;20144;-67
2023/10/04 23:02:27;;;;;;;15.77;13.93;;;;;;;;;;10065328;28;20427;-69
2023/10/04 23:07:19;;;;;;;14.50;13.10;;;;;;;;;;10063681;28;20053;-68
2023/10/04 23:12:12;;;;;;;16.33;14.07;;;;;;;;;;10063883;28;20462;-69
2023/10/04 23:17:04;;;;;;;19.58;12.80;;;;;;;;;;10062565;28;20049;-68
2023/10/04 23:22:06;;;;;;;13.15;11.80;;;;;;;;;;10062569;28;20064;-69
2023/10/04 23:27:00;;;;;;;14.27;11.60;;;;;;;;;;10062927;28;20050;-67
2023/10/04 23:31:53;;;;;;;14.98;13.00;;;;;;;;;;10063834;28;20045;-69
2023/10/04 23:36:46;;;;;;;16.08;13.18;;;;;;;;;;10060684;28;20427;-69
2023/10/04 23:41:42;;;;;;;14.13;11.57;;;;;;;;;;10060980;28;20057;-68
2023/10/04 23:46:36;;;;;;;13.35;10.80;;;;;;;;;;10061831;28;20041;-70
2023/10/04 23:51:28;;;;;;;14.05;10.88;;;;;;;;;;10063348;28;20136;-69
2023/10/04 23:56:20;;;;;;;18.20;11.45;;;;;;;;;;10060462;28;20045;-69
